Time;durP1;ratioP1;P1;durP2;ratioP2;P2;SDS_P1;SDS_P2;PMS_P1;PMS_P2;Temp;Humidity;BMP_temperature;BMP_pressure;BME280_temperature;BME280_humidity;BME280_pressure;Samples;Min_cycle;Max_cycle;Signal;HPM_P1;HPM_P2
2021/12/15 00:00:31;;;;;;;16.87;9.15;;;;;;;3.54;69.84;101297.34;1719749;81;21769;-58
2021/12/15 00:02:58;;;;;;;18.40;8.45;;;;;;;3.42;70.20;101296.03;1688353;82;21526;-59
2021/12/15 00:05:25;;;;;;;17.25;7.92;;;;;;;3.35;70.32;101290.20;1710510;81;21567;-58
2021/12/15 00:07:57;;;;;;;16.02;8.73;;;;;;;3.33;70.39;101293.77;1716286;81;21156;-58
2021/12/15 00:10:24;;;;;;;16.85;7.50;;;;;;;3.33;70.39;101285.50;1684865;83;21068;-58
2021/12/15 00:12:51;;;;;;;15.00;7.33;;;;;;;3.27;70.50;101288.77;1687410;82;21053;-58
2021/12/15 00:15:19;;;;;;;14.87;7.15;;;;;;;3.16;70.83;101292.60;1745426;80;21651;-59
2021/12/15 00:17:46;;;;;;;11.38;6.40;;;;;;;3.09;71.16;101291.55;1761680;80;21517;-60
2021/12/15 00:20:15;;;;;;;13.15;6.87;;;;;;;3.10;71.14;101295.86;1732055;80;22151;-59
2021/12/15 00:22:42;;;;;;;12.35;6.45;;;;;;;3.11;71.35;101292.34;1759161;80;21059;-59
2021/12/15 00:25:11;;;;;;;15.90;6.78;;;;;;;3.08;71.40;101295.08;1763646;80;21050;-59
2021/12/15 00:27:38;;;;;;;10.68;5.20;;;;;;;3.00;71.68;101291.42;1759051;80;22517;-59
2021/12/15 00:30:07;;;;;;;12.98;6.10;;;;;;;2.96;71.76;101292.44;1734060;80;21552;-59
2021/12/15 00:32:34;;;;;;;11.95;6.22;;;;;;;3.01;71.87;101296.16;1763466;80;21180;-58
2021/12/15 00:35:00;;;;;;;12.15;5.30;;;;;;;3.05;71.99;101301.21;1741640;80;21007;-58
2021/12/15 00:37:27;;;;;;;12.95;5.92;;;;;;;3.02;71.94;101305.21;1756223;80;21579;-58
2021/12/15 00:39:54;;;;;;;11.85;5.62;;;;;;;2.97;72.11;101307.12;1737656;80;21899;-58
2021/12/15 00:42:20;;;;;;;12.73;5.30;;;;;;;2.95;72.25;101317.56;1765753;80;21593;-58
2021/12/15 00:44:46;;;;;;;10.90;5.80;;;;;;;3.00;72.15;101311.37;1737819;80;22177;-58
2021/12/15 00:47:13;;;;;;;13.88;5.45;;;;;;;2.98;72.21;101310.97;1732984;80;21540;-58
2021/12/15 00:49:39;;;;;;;11.25;5.62;;;;;;;2.91;72.44;101311.24;1760854;79;21960;-58
2021/12/15 00:52:06;;;;;;;11.25;4.95;;;;;;;2.86;72.43;101317.89;1761921;80;21573;-58
2021/12/15 00:54:34;;;;;;;10.75;4.80;;;;;;;2.90;72.39;101318.63;1759388;80;22614;-58
2021/12/15 00:57:01;;;;;;;11.73;4.90;;;;;;;2.88;72.37;101310.88;1757578;80;21228;-58
2021/12/15 00:59:31;;;;;;;9.75;4.50;;;;;;;2.85;72.44;101311.44;1736988;80;21709;-58
2021/12/15 01:01:58;;;;;;;9.60;4.65;;;;;;;2.76;72.75;101300.44;1761914;79;21080;-58
2021/12/15 01:04:25;;;;;;;9.65;4.78;;;;;;;2.83;72.67;101302.84;1767109;80;21014;-58
2021/12/15 01:06:57;;;;;;;9.28;4.30;;;;;;;2.85;72.58;101295.84;1758733;80;21006;-58
2021/12/15 01:09:32;;;;;;;9.90;4.53;;;;;;;2.79;72.89;101298.17;1728990;80;21285;-57
2021/12/15 01:20:19;;;;;;;6.80;3.47;;;;;;;2.68;73.30;101275.14;1755768;79;21038;-57
2021/12/15 01:22:49;;;;;;;6.97;3.12;;;;;;;2.65;73.54;101272.64;1751274;80;21226;-57
2021/12/15 01:25:26;;;;;;;7.65;3.17;;;;;;;2.71;73.46;101270.31;1754956;80;21056;-59
2021/12/15 01:27:53;;;;;;;6.53;3.27;;;;;;;2.66;73.50;101266.56;1753995;80;21115;-58
2021/12/15 01:30:30;;;;;;;7.87;3.67;;;;;;;2.61;73.76;101269.76;1758503;80;21038;-58
2021/12/15 01:32:57;;;;;;;7.72;3.55;;;;;;;2.60;73.99;101275.84;1755309;80;21130;-58
2021/12/15 01:35:24;;;;;;;9.15;3.52;;;;;;;2.68;73.97;101276.45;1747782;80;21146;-57
2021/12/15 01:37:51;;;;;;;7.30;3.20;;;;;;;2.66;73.97;101268.31;1755960;80;20996;-58
2021/12/15 01:40:30;;;;;;;8.28;3.70;;;;;;;2.64;73.79;101276.16;1756823;80;21034;-57
2021/12/15 01:42:48;;;;;;;7.45;3.72;;;;;;;2.70;73.76;101275.09;1735506;80;21078;-58
2021/12/15 01:48:10;;;;;;;9.43;3.45;;;;;;;2.68;73.53;101284.70;1743684;79;21148;-58
2021/12/15 01:50:36;;;;;;;7.90;3.35;;;;;;;2.62;73.57;101277.94;1733886;80;22448;-58
2021/12/15 01:53:05;;;;;;;7.95;3.42;;;;;;;2.64;73.62;101282.66;1737312;81;21735;-58
2021/12/15 01:55:32;;;;;;;7.55;3.95;;;;;;;2.63;73.64;101277.51;1756774;80;21054;-58
2021/12/15 01:57:59;;;;;;;6.67;3.10;;;;;;;2.57;73.77;101279.83;1751438;80;21093;-57
2021/12/15 02:00:33;;;;;;;8.60;4.00;;;;;;;2.55;73.60;101272.55;1754852;80;21157;-58
2021/12/15 02:03:00;;;;;;;8.48;3.87;;;;;;;2.61;73.47;101285.34;1748979;79;21094;-58
2021/12/15 02:05:28;;;;;;;7.67;3.90;;;;;;;2.57;73.72;101286.33;1756452;80;21113;-58
2021/12/15 02:07:54;;;;;;;6.33;2.98;;;;;;;2.54;73.81;101286.42;1737330;81;21051;-58
2021/12/15 02:10:24;;;;;;;7.90;3.72;;;;;;;2.58;73.86;101290.64;1752889;80;21027;-58
2021/12/15 02:12:50;;;;;;;9.03;3.95;;;;;;;2.64;73.64;101289.16;1754284;80;21137;-59
2021/12/15 02:15:22;;;;;;;7.75;3.75;;;;;;;2.67;73.49;101294.69;1756384;80;21155;-58
2021/12/15 02:17:50;;;;;;;8.33;4.37;;;;;;;2.58;73.56;101293.23;1759325;80;21116;-59
2021/12/15 02:20:22;;;;;;;8.73;4.60;;;;;;;2.60;73.45;101296.62;1755328;79;21968;-58
2021/12/15 02:22:49;;;;;;;8.30;3.67;;;;;;;2.62;73.31;101296.12;1729441;81;21036;-57
2021/12/15 02:25:16;;;;;;;10.32;4.45;;;;;;;2.57;73.41;101296.72;1762419;79;21219;-58
2021/12/15 02:27:44;;;;;;;8.63;4.67;;;;;;;2.49;73.57;101290.92;1762821;80;21047;-59
2021/12/15 02:30:25;;;;;;;8.75;3.98;;;;;;;2.51;73.59;101287.84;1757224;80;21134;-59
2021/12/15 02:38:18;;;;;;;8.15;4.28;;;;;;;2.46;73.81;101290.58;1754315;80;21249;-59
2021/12/15 02:40:45;;;;;;;10.25;4.53;;;;;;;2.55;73.87;101282.94;1756540;80;21634;-57
2021/12/15 02:43:12;;;;;;;9.70;4.25;;;;;;;2.61;73.75;101285.34;1758831;80;21034;-57
2021/12/15 02:45:39;;;;;;;8.15;3.52;;;;;;;2.60;73.81;101283.64;1750609;80;21102;-57
2021/12/15 02:48:05;;;;;;;8.13;4.10;;;;;;;2.56;73.75;101284.66;1755557;80;21087;-57
2021/12/15 02:50:33;;;;;;;9.08;4.22;;;;;;;2.55;73.84;101281.64;1722296;80;21894;-57
2021/12/15 02:53:00;;;;;;;8.80;4.15;;;;;;;2.63;73.61;101287.44;1729852;81;21048;-58
2021/12/15 02:55:28;;;;;;;8.23;3.72;;;;;;;2.63;73.57;101281.41;1756163;80;21078;-57
2021/12/15 02:57:54;;;;;;;9.40;4.45;;;;;;;2.57;73.54;101276.81;1759374;80;21035;-58
2021/12/15 03:00:35;;;;;;;6.87;3.20;;;;;;;2.55;73.43;101282.48;1755193;80;21090;-58
2021/12/15 03:03:25;;;;;;;7.62;3.42;;;;;;;2.61;73.19;101281.45;1754552;80;21971;-58
2021/12/15 03:05:34;;;;;;;7.35;2.95;;;;;;;2.52;73.30;101281.30;1748247;79;21516;-57
2021/12/15 03:08:22;;;;;;;8.08;3.60;;;;;;;2.45;73.51;101291.93;1760575;80;21060;-57
2021/12/15 03:16:22;;;;;;;;;;;;;;;2.46;73.75;101279.35;1757252;80;21021;-59
2021/12/15 03:18:49;;;;;;;;;;;;;;;2.39;73.98;101279.53;1757531;80;20176;-59
2021/12/15 03:21:21;;;;;;;9.13;3.70;;;;;;;2.38;74.10;101279.12;1753741;80;20210;-59
2021/12/15 03:24:00;;;;;;;7.90;3.98;;;;;;;2.45;74.12;101277.64;1764267;80;21521;-59
2021/12/15 03:26:35;;;;;;;6.65;3.15;;;;;;;2.49;74.24;101276.20;1760032;80;21082;-59
2021/12/15 03:37:24;;;;;;;7.50;3.65;;;;;;;2.65;73.38;101282.20;1754220;80;21766;-57
2021/12/15 03:39:55;;;;;;;8.00;3.80;;;;;;;2.55;73.40;101281.18;1739865;80;21074;-57
2021/12/15 03:42:27;;;;;;;8.03;3.87;;;;;;;2.50;73.46;101283.54;1757147;81;21194;-58
2021/12/15 03:44:54;;;;;;;8.00;3.77;;;;;;;2.48;73.54;101287.48;1762392;80;21059;-57
2021/12/15 03:47:25;;;;;;;7.65;3.72;;;;;;;2.55;73.30;101295.93;1761806;79;21017;-57
2021/12/15 03:49:52;;;;;;;7.67;3.75;;;;;;;2.66;72.89;101291.25;1755819;80;21072;-58
2021/12/15 03:52:19;;;;;;;8.75;4.17;;;;;;;2.70;72.84;101293.29;1750149;80;21048;-58
2021/12/15 03:54:47;;;;;;;8.35;3.45;;;;;;;2.69;72.50;101288.98;1742614;80;21027;-58
2021/12/15 03:57:13;;;;;;;6.80;3.55;;;;;;;2.64;72.52;101290.87;1756080;80;21035;-58
2021/12/15 03:59:43;;;;;;;8.58;4.28;;;;;;;2.66;72.35;101293.00;1739272;80;21047;-58
2021/12/15 04:02:12;;;;;;;6.85;3.20;;;;;;;2.74;72.06;101290.98;1754790;80;21079;-57
2021/12/15 04:04:39;;;;;;;8.30;3.67;;;;;;;2.72;72.20;101291.48;1742178;81;21568;-57
2021/12/15 04:07:06;;;;;;;7.53;3.70;;;;;;;2.68;72.10;101292.03;1753500;80;21117;-57
2021/12/15 04:09:33;;;;;;;8.35;4.15;;;;;;;2.63;72.04;101297.84;1757119;80;20988;-57
2021/12/15 04:12:00;;;;;;;7.03;3.20;;;;;;;2.67;72.05;101304.62;1737577;81;21320;-57
2021/12/15 04:14:34;;;;;;;8.65;3.85;;;;;;;2.71;72.13;101307.54;1755149;80;21141;-57
2021/12/15 04:17:17;;;;;;;9.53;4.60;;;;;;;2.71;72.06;101307.54;1715523;81;21558;-58
2021/12/15 04:19:35;;;;;;;8.88;4.20;;;;;;;2.67;72.01;101316.31;1720323;82;21540;-58
2021/12/15 04:22:03;;;;;;;6.20;3.47;;;;;;;2.66;72.12;101319.83;1723171;82;21098;-58
2021/12/15 04:24:30;;;;;;;8.08;4.42;;;;;;;2.71;71.90;101328.33;1725497;82;21079;-58
2021/12/15 04:26:58;;;;;;;7.40;4.33;;;;;;;2.70;72.02;101330.52;1728406;82;21054;-59
2021/12/15 04:29:27;;;;;;;7.22;3.47;;;;;;;2.65;72.14;101330.27;1704767;82;21046;-59
2021/12/15 04:32:02;;;;;;;8.25;4.30;;;;;;;2.61;72.16;101329.52;1728959;82;21181;-59
2021/12/15 04:34:29;;;;;;;9.20;4.33;;;;;;;2.66;71.87;101336.72;1727658;82;21161;-59
2021/12/15 04:36:56;;;;;;;8.55;4.87;;;;;;;2.66;71.68;101330.23;1695375;82;21054;-60
2021/12/15 04:39:25;;;;;;;9.48;5.17;;;;;;;2.55;71.83;101335.74;1728136;82;21798;-59
2021/12/15 04:41:52;;;;;;;12.55;5.35;;;;;;;2.51;72.25;101341.95;1734935;81;20956;-60
2021/12/15 04:44:23;;;;;;;9.63;5.33;;;;;;;2.51;72.49;101340.65;1728476;82;21099;-59
2021/12/15 04:47:00;;;;;;;10.08;5.33;;;;;;;2.50;72.67;101344.59;1706770;82;21102;-58
2021/12/15 04:49:23;;;;;;;10.55;4.90;;;;;;;2.41;72.90;101340.08;1727685;81;21094;-58
2021/12/15 04:51:50;;;;;;;8.63;5.05;;;;;;;2.38;73.14;101343.22;1728086;81;21090;-60
2021/12/15 04:54:17;;;;;;;10.40;4.87;;;;;;;2.45;73.16;101345.19;1710691;82;21062;-60
2021/12/15 04:56:44;;;;;;;10.95;5.62;;;;;;;2.39;73.22;101350.97;1733026;82;21169;-59
2021/12/15 04:59:11;;;;;;;10.53;5.85;;;;;;;2.34;73.55;101347.66;1692628;81;21081;-59
2021/12/15 05:01:37;;;;;;;9.83;5.08;;;;;;;2.33;73.56;101342.05;1728799;81;21394;-60
2021/12/15 05:04:04;;;;;;;10.85;5.85;;;;;;;2.39;73.45;101351.42;1728002;81;21059;-59
2021/12/15 05:06:32;;;;;;;9.60;5.35;;;;;;;2.36;73.53;101352.36;1700219;82;21542;-59
2021/12/15 05:08:59;;;;;;;11.45;6.00;;;;;;;2.31;73.55;101349.05;1702510;82;22157;-59
2021/12/15 05:11:26;;;;;;;8.80;5.03;;;;;;;2.27;73.62;101347.45;1730400;82;21097;-60
2021/12/15 05:13:52;;;;;;;11.33;5.95;;;;;;;2.33;73.58;101356.34;1728343;82;21365;-60
2021/12/15 05:16:20;;;;;;;11.73;5.80;;;;;;;2.30;73.77;101356.88;1732815;80;21130;-58
2021/12/15 05:18:47;;;;;;;9.68;5.70;;;;;;;2.29;73.78;101359.09;1735149;80;21124;-61
2021/12/15 05:21:13;;;;;;;10.40;5.65;;;;;;;2.34;73.51;101352.86;1734464;80;21819;-57
2021/12/15 05:23:45;;;;;;;11.30;5.65;;;;;;;2.33;73.32;101360.23;1754896;79;20976;-59
2021/12/15 05:26:12;;;;;;;10.95;5.35;;;;;;;2.26;73.51;101350.94;1755774;80;21080;-60
2021/12/15 05:28:38;;;;;;;10.50;5.58;;;;;;;2.28;73.63;101350.89;1739269;81;21051;-59
2021/12/15 05:31:05;;;;;;;10.05;4.80;;;;;;;2.34;73.35;101354.16;1737227;80;22264;-61
2021/12/15 05:33:31;;;;;;;10.30;5.65;;;;;;;2.30;73.27;101360.78;1735423;80;22179;-60
2021/12/15 05:35:58;;;;;;;8.73;5.08;;;;;;;2.23;73.25;101364.84;1754399;81;21078;-61
2021/12/15 05:38:25;;;;;;;10.05;5.22;;;;;;;2.21;73.36;101365.80;1751107;80;21253;-60
2021/12/15 05:40:53;;;;;;;9.85;5.03;;;;;;;2.23;73.25;101362.25;1748151;80;21075;-60
2021/12/15 05:43:19;;;;;;;9.63;5.00;;;;;;;2.20;73.25;101371.45;1755279;80;21040;-60
2021/12/15 05:45:48;;;;;;;10.08;5.40;;;;;;;2.16;73.58;101375.48;1757309;80;21227;-60
2021/12/15 05:48:17;;;;;;;8.10;4.65;;;;;;;2.20;73.58;101374.48;1754929;80;21096;-61
2021/12/15 05:50:45;;;;;;;9.00;4.97;;;;;;;2.31;73.52;101372.42;1757349;80;21082;-61
2021/12/15 05:53:11;;;;;;;10.38;5.53;;;;;;;2.37;73.17;101370.95;1757926;80;21042;-61
2021/12/15 05:55:39;;;;;;;10.13;6.10;;;;;;;2.33;73.01;101374.98;1751102;81;21109;-60
2021/12/15 05:58:05;;;;;;;9.08;5.05;;;;;;;2.24;73.02;101374.81;1753571;79;21087;-59
2021/12/15 06:00:35;;;;;;;8.95;5.17;;;;;;;2.23;73.14;101385.63;1750877;80;21944;-59
2021/12/15 06:03:02;;;;;;;10.30;5.45;;;;;;;2.29;72.85;101383.31;1754331;79;21048;-59
2021/12/15 06:05:29;;;;;;;10.15;5.20;;;;;;;2.28;72.77;101391.98;1691295;84;21352;-60
2021/12/15 06:07:56;;;;;;;9.38;5.47;;;;;;;2.23;72.72;101388.22;1755620;80;21047;-59
2021/12/15 06:10:26;;;;;;;13.10;5.60;;;;;;;2.16;72.75;101381.52;1751914;80;21621;-60
2021/12/15 06:12:55;;;;;;;9.78;5.15;;;;;;;2.20;72.56;101381.84;1755494;80;21049;-57
2021/12/15 06:15:24;;;;;;;9.85;4.62;;;;;;;2.20;72.48;101390.06;1759144;79;21055;-59
2021/12/15 06:17:59;;;;;;;9.35;5.28;;;;;;;2.12;72.48;101389.42;1760872;79;21054;-59
2021/12/15 06:20:27;;;;;;;10.78;5.12;;;;;;;2.07;72.35;101397.80;1731541;80;21135;-59
2021/12/15 06:22:55;;;;;;;9.83;4.72;;;;;;;2.14;72.20;101388.50;1759661;80;21230;-59
2021/12/15 06:25:22;;;;;;;11.38;5.50;;;;;;;2.14;71.92;101388.95;1756456;79;21038;-58
2021/12/15 06:27:48;;;;;;;9.35;4.97;;;;;;;2.12;72.07;101389.42;1757610;80;22287;-59
2021/12/15 06:30:15;;;;;;;10.00;5.15;;;;;;;2.08;72.19;101389.97;1757656;80;21064;-59
2021/12/15 06:32:42;;;;;;;9.55;5.08;;;;;;;2.11;71.88;101391.64;1734313;80;21120;-59
2021/12/15 06:35:10;;;;;;;9.58;5.10;;;;;;;2.16;71.81;101401.45;1728689;80;21824;-59
2021/12/15 06:37:36;;;;;;;8.85;4.45;;;;;;;2.11;71.49;101401.56;1735585;80;21040;-59
2021/12/15 06:40:07;;;;;;;10.60;5.17;;;;;;;2.06;71.63;101405.20;1761572;80;21071;-59
2021/12/15 06:42:36;;;;;;;10.23;5.12;;;;;;;2.06;71.62;101409.94;1764742;80;22202;-58
2021/12/15 06:45:04;;;;;;;10.08;4.55;;;;;;;2.13;71.39;101411.91;1768428;80;21042;-58
2021/12/15 06:58:24;;;;;;;9.40;4.35;;;;;;;2.03;71.45;101421.27;1763919;80;21022;-59
2021/12/15 07:00:58;;;;;;;8.05;3.87;;;;;;;2.00;71.44;101423.08;1730145;80;21750;-59
2021/12/15 07:03:25;;;;;;;7.42;3.75;;;;;;;2.08;71.58;101428.91;1769482;80;21058;-60
2021/12/15 07:05:55;;;;;;;7.78;3.83;;;;;;;2.12;71.38;101427.07;1766067;80;21126;-58
2021/12/15 07:08:21;;;;;;;8.43;4.10;;;;;;;2.11;71.41;101429.28;1762296;80;21066;-60
2021/12/15 07:10:50;;;;;;;7.25;3.98;;;;;;;2.09;71.18;101441.01;1764031;80;21094;-60
2021/12/15 07:13:17;;;;;;;7.20;3.08;;;;;;;2.14;71.48;101440.89;1755461;80;21043;-60
2021/12/15 07:15:48;;;;;;;10.93;4.22;;;;;;;2.25;70.99;101444.47;1721950;80;21653;-60
2021/12/15 07:18:26;;;;;;;6.83;3.27;;;;;;;2.26;70.60;101435.34;1763077;80;21090;-59
2021/12/15 07:20:50;;;;;;;7.87;3.08;;;;;;;2.23;70.53;101442.75;1755383;79;21040;-59
2021/12/15 07:23:18;;;;;;;7.40;3.60;;;;;;;2.20;70.83;101444.16;1762890;80;21481;-60
2021/12/15 07:25:48;;;;;;;8.73;3.80;;;;;;;2.18;70.92;101448.98;1761616;80;21606;-60
2021/12/15 07:28:19;;;;;;;6.83;3.35;;;;;;;2.26;70.76;101451.38;1759541;80;21603;-60
2021/12/15 07:30:47;;;;;;;8.40;4.12;;;;;;;2.27;70.35;101448.74;1765201;80;21020;-59
2021/12/15 07:33:14;;;;;;;11.70;4.92;;;;;;;2.22;70.75;101457.95;1759370;80;21050;-60
2021/12/15 07:35:40;;;;;;;7.15;3.90;;;;;;;2.19;71.13;101458.48;1735674;80;21763;-59
2021/12/15 07:38:07;;;;;;;9.40;5.45;;;;;;;2.23;71.20;101467.88;1765182;79;21673;-59
2021/12/15 07:40:34;;;;;;;9.85;5.03;;;;;;;2.32;71.10;101467.64;1738663;80;21717;-60
2021/12/15 07:43:10;;;;;;;11.70;5.35;;;;;;;2.35;70.88;101467.98;1767886;79;22353;-60
2021/12/15 07:45:51;;;;;;;13.30;4.53;;;;;;;2.34;71.05;101462.41;1737673;80;21060;-59
2021/12/15 07:48:21;;;;;;;8.45;4.70;;;;;;;2.29;71.14;101465.13;1768266;80;21054;-59
2021/12/15 07:50:50;;;;;;;6.95;4.22;;;;;;;2.32;71.36;101471.53;1757548;80;21527;-60
2021/12/15 07:53:18;;;;;;;8.55;4.85;;;;;;;2.45;71.18;101472.02;1736698;80;21559;-59
2021/12/15 07:55:46;;;;;;;9.30;4.65;;;;;;;2.54;70.84;101472.20;1763858;79;21058;-59
2021/12/15 07:58:13;;;;;;;9.23;4.25;;;;;;;2.55;70.40;101471.31;1737773;80;21084;-59
2021/12/15 08:00:42;;;;;;;8.98;4.95;;;;;;;2.50;69.96;101479.69;1763660;80;21045;-59
2021/12/15 08:03:09;;;;;;;9.55;4.20;;;;;;;2.45;70.25;101482.41;1763722;80;21320;-58
2021/12/15 08:05:36;;;;;;;7.70;4.00;;;;;;;2.45;69.79;101480.27;1762145;80;21082;-59
2021/12/15 08:08:04;;;;;;;7.30;4.15;;;;;;;2.47;69.44;101483.67;1733636;80;21646;-59
2021/12/15 08:10:31;;;;;;;8.15;4.03;;;;;;;2.41;69.69;101488.14;1765475;80;21884;-58
2021/12/15 08:12:57;;;;;;;8.35;4.10;;;;;;;2.34;69.86;101485.33;1761666;80;21590;-60
2021/12/15 08:15:23;;;;;;;7.28;3.67;;;;;;;2.30;70.28;101484.14;1764818;80;22082;-60
2021/12/15 08:17:52;;;;;;;6.67;3.55;;;;;;;2.40;69.97;101485.59;1742568;80;21042;-61
2021/12/15 08:20:22;;;;;;;6.28;3.35;;;;;;;2.48;69.83;101484.92;1744967;80;21058;-60
2021/12/15 08:22:49;;;;;;;6.47;3.70;;;;;;;2.47;69.63;101482.37;1772095;79;21055;-60
2021/12/15 08:25:16;;;;;;;12.23;3.80;;;;;;;2.48;69.72;101485.38;1739623;80;21519;-60
2021/12/15 08:27:43;;;;;;;7.83;4.10;;;;;;;2.46;69.81;101487.19;1740286;80;21195;-61
2021/12/15 08:33:02;;;;;;;8.23;4.53;;;;;;;2.57;69.12;101486.41;1794004;78;22707;-60
2021/12/15 08:35:36;;;;;;;9.33;5.37;;;;;;;2.48;69.05;101490.58;1775394;78;21551;-60
2021/12/15 08:38:04;;;;;;;11.28;5.15;;;;;;;2.41;69.16;101486.84;1766600;79;21239;-61
2021/12/15 08:40:31;;;;;;;7.47;4.37;;;;;;;2.38;69.48;101492.13;1749626;79;20943;-59
2021/12/15 08:42:58;;;;;;;7.97;4.47;;;;;;;2.41;69.16;101484.70;1774137;79;21054;-59
2021/12/15 08:45:25;;;;;;;7.42;4.35;;;;;;;2.47;68.13;101489.73;1740819;81;21111;-60
2021/12/15 08:47:52;;;;;;;10.08;6.17;;;;;;;2.42;68.15;101485.09;1725484;82;21579;-59
2021/12/15 08:50:23;;;;;;;10.38;5.62;;;;;;;2.38;67.76;101483.48;1715191;82;22139;-60
2021/12/15 08:52:49;;;;;;;7.95;4.83;;;;;;;2.33;67.95;101482.31;1722812;82;21109;-60
2021/12/15 08:55:16;;;;;;;8.30;4.72;;;;;;;2.29;68.05;101478.56;1740541;81;21047;-61
2021/12/15 08:57:48;;;;;;;9.50;4.12;;;;;;;2.35;67.73;101475.32;1703418;82;21079;-61
2021/12/15 09:00:12;;;;;;;8.53;4.08;;;;;;;2.34;67.17;101479.29;1734519;80;21158;-59
2021/12/15 09:02:40;;;;;;;7.60;3.72;;;;;;;2.32;67.56;101480.63;1717062;81;20895;-60
2021/12/15 09:05:08;;;;;;;7.60;4.25;;;;;;;2.30;67.65;101478.50;1717763;81;21015;-61
2021/12/15 09:07:34;;;;;;;7.03;3.77;;;;;;;2.31;67.29;101476.77;1695689;82;21050;-61
2021/12/15 09:10:02;;;;;;;8.05;4.25;;;;;;;2.36;66.58;101474.44;1722258;81;20935;-61
2021/12/15 09:12:29;;;;;;;9.28;4.40;;;;;;;2.40;66.54;101477.80;1716170;82;21057;-60
2021/12/15 09:14:55;;;;;;;8.23;4.47;;;;;;;2.38;66.78;101479.59;1718796;82;21106;-61
2021/12/15 09:17:21;;;;;;;6.92;3.83;;;;;;;2.38;66.76;101485.63;1719628;82;21318;-60
2021/12/15 09:19:48;;;;;;;5.00;2.50;;;;;;;2.34;66.75;101481.43;1743220;80;21035;-60
2021/12/15 09:22:15;;;;;;;4.25;1.92;;;;;;;2.38;66.42;101476.54;1740524;81;21081;-60
2021/12/15 09:24:41;;;;;;;4.58;2.02;;;;;;;2.37;65.26;101470.96;1712962;81;21127;-60
2021/12/15 09:27:08;;;;;;;5.42;2.12;;;;;;;2.40;64.51;101472.60;1716865;80;21213;-60
2021/12/15 09:29:34;;;;;;;7.12;2.47;;;;;;;2.37;63.13;101469.66;1739756;80;21568;-60
2021/12/15 09:32:02;;;;;;;4.85;2.25;;;;;;;2.38;63.22;101465.31;1702679;81;21110;-60
2021/12/15 09:34:30;;;;;;;5.12;2.42;;;;;;;2.39;63.55;101469.62;1686548;83;21099;-60
2021/12/15 09:36:57;;;;;;;4.85;1.92;;;;;;;2.43;62.72;101470.38;1709775;82;21122;-60
2021/12/15 09:39:24;;;;;;;5.05;2.02;;;;;;;2.39;61.96;101462.67;1713442;82;21479;-61
2021/12/15 09:41:51;;;;;;;4.62;1.87;;;;;;;2.38;62.44;101460.11;1712979;81;21063;-60
2021/12/15 09:44:21;;;;;;;5.05;1.90;;;;;;;2.36;62.65;101458.02;1709132;83;21087;-61
2021/12/15 10:03:11;;;;;;;5.37;2.65;;;;;;;2.48;62.42;101451.16;1710646;82;21097;-60
2021/12/15 10:19:28;;;;;;;7.03;3.20;;;;;;;2.19;64.00;101438.56;1635588;83;21125;-60
2021/12/15 10:22:17;;;;;;;5.50;2.62;;;;;;;2.23;63.48;101438.86;1712408;83;21718;-61
2021/12/15 10:24:55;;;;;;;8.78;3.10;;;;;;;2.26;63.18;101437.94;1715072;83;21512;-60
2021/12/15 10:27:51;;;;;;;5.85;2.60;;;;;;;2.33;62.92;101436.86;1690939;83;21600;-60
2021/12/15 10:30:28;;;;;;;5.63;2.47;;;;;;;2.33;61.73;101435.56;1669043;83;21074;-60
2021/12/15 10:33:06;;;;;;;6.83;2.77;;;;;;;2.26;61.38;101422.81;1700833;82;21160;-59
2021/12/15 10:35:38;;;;;;;5.92;2.83;;;;;;;2.23;62.14;101435.42;1700700;83;21110;-61
2021/12/15 10:38:37;;;;;;;6.90;3.47;;;;;;;2.20;62.38;101427.72;1673738;83;21058;-60
2021/12/15 10:41:09;;;;;;;6.00;2.77;;;;;;;2.18;62.33;101426.91;1706335;82;21065;-59
2021/12/15 10:43:45;;;;;;;7.25;3.00;;;;;;;2.16;62.45;101427.41;1718188;80;21101;-60
2021/12/15 10:46:31;;;;;;;6.60;2.85;;;;;;;2.18;62.11;101427.75;1718058;82;21315;-60
2021/12/15 10:49:04;;;;;;;7.87;2.42;;;;;;;2.16;61.91;101427.41;1718141;80;21007;-61
2021/12/15 10:51:50;;;;;;;5.53;2.65;;;;;;;2.14;61.89;101428.75;1713786;81;21069;-60
2021/12/15 10:54:21;;;;;;;6.75;3.25;;;;;;;2.12;61.92;101429.25;1725509;81;21079;-58
2021/12/15 10:57:12;;;;;;;5.58;2.85;;;;;;;2.12;61.80;101426.65;1737749;80;21082;-60
2021/12/15 10:59:46;;;;;;;5.22;2.50;;;;;;;2.10;61.77;101427.14;1721275;81;21070;-60
2021/12/15 11:02:20;;;;;;;8.13;3.12;;;;;;;2.18;61.85;101423.02;1738972;80;21039;-60
2021/12/15 11:04:52;;;;;;;6.97;3.45;;;;;;;2.20;60.95;101422.52;1720069;80;21451;-60
2021/12/15 11:07:33;;;;;;;5.95;3.05;;;;;;;2.21;61.10;101415.14;1740147;80;21090;-60
2021/12/15 11:10:25;;;;;;;6.85;3.17;;;;;;;2.22;60.50;101414.27;1735682;80;21063;-59
2021/12/15 11:12:58;;;;;;;7.50;3.12;;;;;;;2.23;60.23;101410.75;1738855;80;21033;-60
2021/12/15 11:15:42;;;;;;;5.72;2.98;;;;;;;2.25;59.50;101418.05;1725172;81;21133;-60
2021/12/15 11:18:19;;;;;;;6.85;3.22;;;;;;;2.22;59.57;101406.02;1710666;81;21116;-60
2021/12/15 11:20:56;;;;;;;7.62;3.62;;;;;;;2.23;59.83;101413.34;1736772;82;21118;-61
2021/12/15 11:23:24;;;;;;;8.00;2.72;;;;;;;2.26;60.09;101417.16;1712155;80;21096;-59
2021/12/15 11:26:05;;;;;;;5.10;2.37;;;;;;;2.35;60.16;101422.53;1735191;81;21145;-60
2021/12/15 11:28:35;;;;;;;6.47;2.52;;;;;;;2.39;60.02;101421.56;1736268;81;21094;-60
2021/12/15 11:31:17;;;;;;;6.37;3.20;;;;;;;2.45;59.26;101423.96;1749641;80;21103;-60
2021/12/15 11:33:51;;;;;;;8.48;3.25;;;;;;;2.50;59.33;101421.23;1751636;80;21021;-60
2021/12/15 11:36:25;;;;;;;6.72;2.98;;;;;;;2.56;59.16;101414.56;1756728;79;21059;-60
2021/12/15 11:38:56;;;;;;;5.87;2.52;;;;;;;2.55;59.13;101417.59;1735161;80;22766;-59
2021/12/15 11:41:31;;;;;;;6.03;2.60;;;;;;;2.55;59.13;101417.59;1735144;80;21110;-60
2021/12/15 11:44:13;;;;;;;7.10;3.52;;;;;;;2.51;58.79;101417.30;1762352;80;21078;-60
2021/12/15 11:46:46;;;;;;;6.28;3.02;;;;;;;2.43;58.73;101416.67;1753913;80;21520;-59
2021/12/15 11:49:19;;;;;;;6.03;3.12;;;;;;;2.36;58.96;101418.59;1761697;80;21059;-59
2021/12/15 11:51:53;;;;;;;7.40;2.95;;;;;;;2.30;58.85;101421.36;1752031;80;21898;-60
2021/12/15 11:54:30;;;;;;;8.25;3.70;;;;;;;2.25;58.97;101425.84;1762744;80;21051;-61
2021/12/15 11:57:07;;;;;;;6.75;3.58;;;;;;;2.20;59.22;101425.98;1740182;80;21060;-60
2021/12/15 11:59:40;;;;;;;7.75;4.12;;;;;;;2.18;59.44;101419.13;1761747;80;21071;-62
2021/12/15 12:02:22;;;;;;;8.43;4.45;;;;;;;2.15;59.78;101425.70;1759595;80;21047;-61
2021/12/15 12:04:52;;;;;;;8.08;4.55;;;;;;;2.14;61.05;101422.72;1740578;80;21035;-62
2021/12/15 12:07:26;;;;;;;10.68;5.10;;;;;;;2.15;61.17;101417.91;1751778;80;21047;-60
2021/12/15 12:10:13;;;;;;;8.25;5.17;;;;;;;2.16;61.42;101416.56;1756826;80;21016;-60
2021/12/15 12:12:51;;;;;;;12.30;5.08;;;;;;;2.15;61.49;101421.38;1757262;80;21046;-59
2021/12/15 12:15:14;;;;;;;11.28;4.83;;;;;;;2.12;61.73;101417.56;1759985;80;21626;-59
2021/12/15 12:17:46;;;;;;;9.13;5.28;;;;;;;2.12;61.84;101422.75;1745515;80;21411;-59
2021/12/15 12:20:16;;;;;;;11.48;5.60;;;;;;;2.16;61.96;101422.22;1734015;80;21046;-60
2021/12/15 12:22:45;;;;;;;8.85;5.45;;;;;;;2.19;62.09;101423.44;1752141;80;21532;-60
2021/12/15 12:25:23;;;;;;;9.05;5.42;;;;;;;2.25;61.67;101428.89;1758134;80;21154;-59
2021/12/15 12:27:50;;;;;;;9.20;5.03;;;;;;;2.24;61.56;101430.64;1741154;80;21035;-59
2021/12/15 12:30:30;;;;;;;8.18;5.12;;;;;;;2.25;61.65;101431.48;1754881;80;21079;-59
2021/12/15 12:32:57;;;;;;;10.08;5.30;;;;;;;2.21;61.54;101431.56;1740997;80;21068;-58
2021/12/15 12:35:28;;;;;;;9.58;5.25;;;;;;;2.18;61.33;101438.14;1753700;80;21118;-59
2021/12/15 12:37:58;;;;;;;8.58;5.67;;;;;;;2.11;61.47;101436.62;1705657;81;21061;-59
2021/12/15 12:40:32;;;;;;;8.55;5.35;;;;;;;2.07;61.20;101440.20;1757612;80;21058;-61
2021/12/15 12:42:59;;;;;;;8.23;5.25;;;;;;;1.96;61.46;101446.13;1761319;80;21223;-59
2021/12/15 12:45:37;;;;;;;8.35;5.28;;;;;;;1.88;61.75;101446.78;1756545;79;21069;-59
2021/12/15 12:59:47;;;;;;;10.65;5.25;;;;;;;1.55;62.25;101439.00;1742672;80;21008;-61
2021/12/15 13:02:47;;;;;;;10.30;4.97;;;;;;;1.54;62.28;101439.88;1758302;80;21458;-61
2021/12/15 13:05:40;;;;;;;8.23;4.30;;;;;;;1.55;61.82;101448.92;1762046;80;21086;-61
2021/12/15 13:08:12;;;;;;;8.75;5.03;;;;;;;1.52;61.82;101455.48;1755527;80;21547;-59
2021/12/15 13:11:05;;;;;;;7.95;4.62;;;;;;;1.52;61.83;101458.08;1756394;80;21227;-59